Time;durP1;ratioP1;P1;durP2;ratioP2;P2;SDS_P1;SDS_P2;PMS_P1;PMS_P2;Temp;Humidity;BMP_temperature;BMP_pressure;BME280_temperature;BME280_humidity;BME280_pressure;Samples;Min_cycle;Max_cycle;Signal;HPM_P1;HPM_P2
2022/03/05 00:00:16;;;;;;;5.53;1.95;;;;;;;3.87;100.00;100581.84;7396694;19;20014;-53
2022/03/05 00:02:42;;;;;;;1.85;1.52;;;;;;;3.90;100.00;100581.78;7393812;19;20010;-53
2022/03/05 00:05:08;;;;;;;0.82;0.75;;;;;;;3.95;100.00;100578.59;7392796;19;20022;-53
2022/03/05 00:07:33;;;;;;;1.13;1.02;;;;;;;4.08;100.00;100574.09;7392532;19;20038;-53
2022/03/05 00:09:59;;;;;;;1.02;0.98;;;;;;;4.12;100.00;100574.81;7395620;19;20073;-53
2022/03/05 00:12:25;;;;;;;4.82;1.13;;;;;;;4.20;100.00;100579.03;7393993;19;20003;-53
2022/03/05 00:14:51;;;;;;;0.95;0.90;;;;;;;4.26;100.00;100574.63;7395385;19;20027;-53
2022/03/05 00:17:17;;;;;;;0.70;0.70;;;;;;;4.21;100.00;100594.38;7393665;19;20006;-53
2022/03/05 00:19:42;;;;;;;1.70;1.60;;;;;;;4.35;100.00;100599.69;7393966;19;20014;-53
2022/03/05 00:22:08;;;;;;;3.05;1.83;;;;;;;4.39;100.00;100586.66;7392252;19;20091;-53
2022/03/05 00:24:33;;;;;;;1.67;1.08;;;;;;;4.43;100.00;100598.41;7393537;19;20455;-53
2022/03/05 00:26:59;;;;;;;14.60;0.98;;;;;;;4.44;100.00;100594.44;7393030;19;20418;-53
2022/03/05 00:29:25;;;;;;;1.65;1.17;;;;;;;4.39;100.00;100603.19;7392823;19;20358;-53
2022/03/05 00:31:51;;;;;;;0.63;0.63;;;;;;;4.31;100.00;100593.44;7393395;19;20518;-53
2022/03/05 00:34:17;;;;;;;1.60;1.50;;;;;;;4.23;100.00;100605.78;7393133;19;20030;-48
2022/03/05 00:36:42;;;;;;;1.40;0.82;;;;;;;4.17;100.00;100610.19;7394091;19;20010;-53
2022/03/05 00:39:08;;;;;;;5.93;1.58;;;;;;;4.14;100.00;100611.00;7392483;19;20356;-53
2022/03/05 00:41:34;;;;;;;4.45;1.80;;;;;;;4.13;100.00;100609.47;7393624;19;20034;-53
2022/03/05 00:43:59;;;;;;;4.88;1.55;;;;;;;4.12;100.00;100609.84;7393070;19;20021;-53
2022/03/05 00:46:25;;;;;;;5.45;1.30;;;;;;;4.06;100.00;100600.50;7393138;19;20024;-53
2022/03/05 00:48:52;;;;;;;1.95;1.45;;;;;;;4.13;100.00;100605.91;7394189;19;20018;-53
2022/03/05 00:51:19;;;;;;;1.10;0.98;;;;;;;4.27;100.00;100608.47;7393408;19;20006;-53
2022/03/05 00:53:44;;;;;;;1.55;1.23;;;;;;;4.32;100.00;100619.03;7392501;19;20022;-53
2022/03/05 00:56:10;;;;;;;1.15;1.05;;;;;;;4.36;100.00;100622.53;7392829;19;20015;-53
2022/03/05 00:58:36;;;;;;;2.72;1.60;;;;;;;4.39;100.00;100625.25;7392673;19;20003;-53
2022/03/05 01:01:02;;;;;;;2.67;0.85;;;;;;;4.41;100.00;100625.63;7394221;19;20027;-53
2022/03/05 01:03:27;;;;;;;3.30;0.90;;;;;;;4.47;100.00;100632.22;7391977;19;20074;-53
2022/03/05 01:05:54;;;;;;;7.97;2.03;;;;;;;4.39;100.00;100636.28;7391646;19;20416;-53
2022/03/05 01:08:20;;;;;;;1.25;1.15;;;;;;;4.35;100.00;100643.81;7390711;19;20011;-52
2022/03/05 01:10:45;;;;;;;8.85;0.85;;;;;;;4.36;100.00;100642.63;7394398;19;20016;-53
2022/03/05 01:13:11;;;;;;;3.17;1.17;;;;;;;4.42;100.00;100640.97;7390585;19;20023;-53
2022/03/05 01:15:36;;;;;;;2.58;0.80;;;;;;;4.47;100.00;100636.97;7392927;19;20361;-53
2022/03/05 01:18:04;;;;;;;7.00;1.33;;;;;;;4.44;100.00;100638.56;7392025;19;20010;-53
2022/03/05 01:20:30;;;;;;;4.82;1.25;;;;;;;4.47;100.00;100648.00;7390771;19;20017;-53
2022/03/05 01:22:55;;;;;;;1.23;0.90;;;;;;;4.70;100.00;100639.78;7391731;19;20034;-53
2022/03/05 01:25:21;;;;;;;1.33;0.77;;;;;;;4.92;100.00;100640.22;7390711;19;20501;-52
2022/03/05 01:27:46;;;;;;;1.05;1.05;;;;;;;4.94;100.00;100638.63;7393765;19;20024;-53
2022/03/05 01:30:13;;;;;;;1.40;1.30;;;;;;;4.86;100.00;100628.91;7400593;19;20451;-53
2022/03/05 01:32:40;;;;;;;1.15;1.05;;;;;;;4.67;100.00;100629.59;7398386;19;20325;-53
2022/03/05 01:35:08;;;;;;;2.30;1.30;;;;;;;4.56;100.00;100629.75;7399523;19;20010;-53
2022/03/05 01:37:33;;;;;;;0.40;0.40;;;;;;;4.47;100.00;100632.22;7397835;19;20049;-53
2022/03/05 01:39:59;;;;;;;0.30;0.30;;;;;;;4.44;100.00;100638.56;7399938;19;20010;-53
2022/03/05 01:42:25;;;;;;;5.75;0.57;;;;;;;4.37;100.00;100637.91;7396204;19;20017;-53
2022/03/05 01:44:51;;;;;;;1.25;1.00;;;;;;;4.34;100.00;100635.97;7397784;19;20467;-53
2022/03/05 01:47:17;;;;;;;0.75;0.75;;;;;;;4.35;100.00;100638.28;7397540;19;20455;-53
2022/03/05 01:49:43;;;;;;;1.55;1.33;;;;;;;4.30;100.00;100629.72;7397741;19;20025;-53
2022/03/05 01:52:09;;;;;;;1.40;0.52;;;;;;;4.26;100.00;100627.00;7398569;19;20006;-53
2022/03/05 01:54:35;;;;;;;2.42;0.95;;;;;;;4.27;100.00;100623.03;7398545;19;20011;-53
2022/03/05 01:57:02;;;;;;;1.42;0.40;;;;;;;4.28;100.00;100618.31;7398726;19;20021;-53
2022/03/05 01:59:28;;;;;;;0.50;0.50;;;;;;;4.20;100.00;100623.13;7397270;19;20034;-53
2022/03/05 02:01:54;;;;;;;3.85;2.03;;;;;;;4.14;100.00;100630.31;7398717;19;20007;-53
2022/03/05 02:04:19;;;;;;;1.30;1.00;;;;;;;4.06;100.00;100628.84;7397742;19;20017;-53
2022/03/05 02:06:45;;;;;;;1.17;0.50;;;;;;;3.98;100.00;100627.38;7398081;19;20111;-53
2022/03/05 02:09:11;;;;;;;3.65;1.38;;;;;;;3.90;100.00;100639.66;7398391;19;20007;-53
2022/03/05 02:11:36;;;;;;;0.30;0.30;;;;;;;3.93;100.00;100630.56;7397740;19;20002;-53
2022/03/05 02:14:02;;;;;;;1.55;1.40;;;;;;;3.92;100.00;100634.50;7397339;19;20003;-53
2022/03/05 02:16:29;;;;;;;0.50;0.50;;;;;;;4.02;100.00;100628.09;7397148;19;20471;-53
2022/03/05 02:18:58;;;;;;;0.80;0.80;;;;;;;4.08;100.00;100623.69;7397720;19;20018;-53
2022/03/05 02:21:27;;;;;;;0.57;0.57;;;;;;;4.08;100.00;100614.63;7397980;19;20505;-53
2022/03/05 02:23:54;;;;;;;0.57;0.57;;;;;;;4.04;100.00;100625.72;7397640;19;20455;-53
2022/03/05 02:26:21;;;;;;;0.55;0.55;;;;;;;3.97;100.00;100613.97;7396462;19;20035;-53
2022/03/05 02:28:47;;;;;;;0.40;0.40;;;;;;;3.96;100.00;100621.50;7398046;19;20014;-53
2022/03/05 02:31:13;;;;;;;0.20;0.20;;;;;;;3.86;100.00;100619.63;7398654;19;20128;-53
2022/03/05 02:33:39;;;;;;;0.43;0.43;;;;;;;3.87;100.00;100621.19;7396575;19;20376;-53
2022/03/05 02:36:05;;;;;;;0.10;0.10;;;;;;;3.90;100.00;100625.88;7397613;19;20372;-53
2022/03/05 02:38:31;;;;;;;0.65;0.35;;;;;;;3.87;100.00;100632.22;7395883;19;20015;-53
2022/03/05 02:40:57;;;;;;;0.35;0.35;;;;;;;3.88;100.00;100628.25;7396587;19;20013;-53
2022/03/05 02:43:23;;;;;;;0.70;0.45;;;;;;;3.88;100.00;100633.75;7396540;19;20014;-53
2022/03/05 02:45:50;;;;;;;0.40;0.40;;;;;;;3.81;100.00;100645.66;7395478;19;20010;-53
2022/03/05 02:48:17;;;;;;;0.28;0.28;;;;;;;3.82;100.00;100643.69;7394942;19;20019;-52
2022/03/05 02:50:44;;;;;;;0.82;0.80;;;;;;;3.79;100.00;100647.25;7397843;19;20458;-53
2022/03/05 02:53:10;;;;;;;1.02;1.02;;;;;;;3.77;100.00;100642.16;7396659;19;20002;-53
2022/03/05 02:55:36;;;;;;;0.40;0.40;;;;;;;3.75;100.00;100643.75;7395430;19;20451;-52
2022/03/05 02:58:03;;;;;;;0.50;0.50;;;;;;;3.72;100.00;100637.13;7396349;19;20014;-53
2022/03/05 03:00:29;;;;;;;0.30;0.22;;;;;;;3.73;100.00;100643.38;7398048;19;20022;-52
2022/03/05 03:02:54;;;;;;;0.40;0.40;;;;;;;3.72;100.00;100645.38;7396806;19;20443;-52
2022/03/05 03:05:21;;;;;;;0.38;0.32;;;;;;;3.72;100.00;100653.63;7395069;19;20028;-52
2022/03/05 03:07:47;;;;;;;0.52;0.52;;;;;;;3.69;100.00;100648.94;7395126;19;20039;-53
2022/03/05 03:10:15;;;;;;;0.85;0.85;;;;;;;3.66;100.00;100644.22;7397066;19;20021;-53
2022/03/05 03:12:41;;;;;;;0.50;0.50;;;;;;;3.57;100.00;100656.94;7395123;19;20570;-53
2022/03/05 03:15:09;;;;;;;0.30;0.30;;;;;;;3.64;100.00;100651.34;7398004;19;20007;-53
2022/03/05 03:17:47;;;;;;;4.32;1.38;;;;;;;3.77;100.00;100649.63;7396851;19;20108;-52
2022/03/05 03:20:16;;;;;;;0.50;0.50;;;;;;;3.81;100.00;100658.66;7398101;19;20010;-52
2022/03/05 03:22:42;;;;;;;1.90;1.27;;;;;;;3.86;100.00;100655.44;7395435;19;20003;-53
2022/03/05 03:25:10;;;;;;;0.50;0.40;;;;;;;3.79;100.00;100653.53;7396558;19;20478;-53
2022/03/05 03:27:37;;;;;;;0.43;0.43;;;;;;;3.82;100.00;100657.44;7393586;19;20031;-53
2022/03/05 03:30:04;;;;;;;2.83;0.63;;;;;;;3.78;100.00;100662.22;7396890;19;20025;-52
2022/03/05 03:32:29;;;;;;;1.73;1.27;;;;;;;3.84;100.00;100655.84;7395662;19;20007;-53
2022/03/05 03:34:55;;;;;;;0.60;0.60;;;;;;;3.84;100.00;100660.56;7395622;19;20074;-53
2022/03/05 03:37:20;;;;;;;1.15;0.68;;;;;;;3.76;100.00;100661.84;7393805;19;20369;-53
2022/03/05 03:39:46;;;;;;;1.33;1.33;;;;;;;3.64;100.00;100665.09;7395415;19;20467;-53
2022/03/05 03:42:12;;;;;;;0.85;0.85;;;;;;;3.48;100.00;100671.19;7393835;19;20031;-52
2022/03/05 03:44:37;;;;;;;2.45;0.95;;;;;;;3.40;100.00;100666.16;7392579;19;20034;-53
2022/03/05 03:47:03;;;;;;;1.33;0.52;;;;;;;3.39;100.00;100662.59;7395336;19;20002;-53
2022/03/05 03:49:29;;;;;;;0.70;0.68;;;;;;;3.37;100.00;100665.00;7393359;19;20007;-53
2022/03/05 03:51:55;;;;;;;0.70;0.70;;;;;;;3.36;100.00;100665.38;7391427;19;20557;-53
2022/03/05 03:54:21;;;;;;;0.95;0.50;;;;;;;3.36;100.00;100665.38;7394445;19;20018;-53
2022/03/05 03:56:46;;;;;;;3.03;0.45;;;;;;;3.35;100.00;100667.38;7395305;19;20077;-53
2022/03/05 03:59:12;;;;;;;6.07;0.95;;;;;;;3.33;100.00;100664.25;7395411;19;20367;-53
2022/03/05 04:01:38;;;;;;;0.75;0.35;;;;;;;3.32;100.00;100665.41;7395333;19;20014;-53
2022/03/05 04:04:04;;;;;;;5.47;1.55;;;;;;;3.30;100.00;100664.25;7393090;19;20011;-53
2022/03/05 04:08:41;;;;;;;2.75;1.20;;;;;;;3.23;100.00;100670.59;7393978;19;20009;-53
2022/03/05 04:09:15;;;;;;;0.52;0.40;;;;;;;3.28;100.00;100672.94;7394560;19;20018;-53
2022/03/05 04:11:41;;;;;;;1.08;0.70;;;;;;;3.27;100.00;100671.34;7395929;19;20010;-53
2022/03/05 04:14:06;;;;;;;0.40;0.40;;;;;;;3.22;100.00;100674.56;7394656;19;20066;-53
2022/03/05 04:16:32;;;;;;;0.50;0.50;;;;;;;3.25;100.00;100684.75;7393375;19;20527;-53
2022/03/05 04:18:57;;;;;;;0.28;0.28;;;;;;;3.29;100.00;100690.22;7393547;19;20027;-53
2022/03/05 04:21:23;;;;;;;0.32;0.32;;;;;;;3.30;100.00;100680.78;7394524;19;20021;-53
2022/03/05 04:23:49;;;;;;;0.47;0.47;;;;;;;3.32;100.00;100686.66;7394596;19;20010;-53
2022/03/05 04:26:14;;;;;;;0.60;0.60;;;;;;;3.38;100.00;100687.81;7394348;19;20010;-53
2022/03/05 04:28:40;;;;;;;0.75;0.75;;;;;;;3.42;100.00;100688.56;7392314;19;20464;-53
2022/03/05 04:31:06;;;;;;;0.50;0.50;;;;;;;3.44;100.00;100695.22;7394115;19;20070;-53
2022/03/05 04:33:32;;;;;;;0.30;0.30;;;;;;;3.47;100.00;100701.84;7393063;19;20003;-53
2022/03/05 04:35:58;;;;;;;0.63;0.63;;;;;;;3.55;100.00;100700.63;7394246;19;20480;-53
2022/03/05 04:38:23;;;;;;;0.98;0.82;;;;;;;3.65;100.00;100706.03;7392182;19;20011;-53
2022/03/05 04:40:49;;;;;;;1.05;1.05;;;;;;;3.66;100.00;100699.31;7394632;19;20010;-53
2022/03/05 04:43:14;;;;;;;0.93;0.93;;;;;;;3.76;100.00;100708.69;7392880;19;20081;-53
2022/03/05 04:45:40;;;;;;;0.25;0.25;;;;;;;3.83;100.00;100708.63;7392543;19;20074;-53
2022/03/05 04:48:06;;;;;;;0.17;0.17;;;;;;;3.87;100.00;100712.13;7391288;19;20041;-53
2022/03/05 04:50:32;;;;;;;2.20;1.65;;;;;;;3.82;100.00;100715.31;7393035;19;20014;-53
2022/03/05 04:52:58;;;;;;;0.35;0.35;;;;;;;3.84;100.00;100715.69;7393000;19;20070;-53
2022/03/05 04:55:23;;;;;;;0.50;0.50;;;;;;;3.69;100.00;100719.75;7391712;19;20014;-53
2022/03/05 04:57:49;;;;;;;0.20;0.20;;;;;;;3.75;100.00;100720.88;7393249;19;20038;-53
2022/03/05 05:00:15;;;;;;;0.38;0.38;;;;;;;3.76;100.00;100720.50;7394874;19;20016;-53
2022/03/05 05:02:41;;;;;;;0.28;0.22;;;;;;;3.79;100.00;100707.84;7390912;19;20011;-53
2022/03/05 05:05:07;;;;;;;0.20;0.20;;;;;;;3.76;100.00;100719.69;7392043;19;20363;-53
2022/03/05 05:07:33;;;;;;;0.30;0.30;;;;;;;3.77;100.00;100726.75;7389619;19;20014;-53
2022/03/05 05:09:59;;;;;;;0.30;0.30;;;;;;;3.76;100.00;100728.75;7393400;19;20010;-52
2022/03/05 05:12:24;;;;;;;0.57;0.57;;;;;;;3.85;100.00;100731.78;7391382;19;20057;-52
2022/03/05 05:14:50;;;;;;;0.43;0.43;;;;;;;3.90;100.00;100730.56;7393167;19;20070;-53
2022/03/05 05:17:16;;;;;;;0.30;0.30;;;;;;;3.92;100.00;100733.69;7392396;19;20014;-53
2022/03/05 05:19:41;;;;;;;0.30;0.30;;;;;;;3.94;100.00;100739.59;7391948;19;20343;-53
2022/03/05 05:22:07;;;;;;;0.32;0.32;;;;;;;3.85;100.00;100739.28;7392672;19;20111;-53
2022/03/05 05:24:34;;;;;;;1.85;0.32;;;;;;;3.79;100.00;100749.16;7391937;19;20014;-53
2022/03/05 05:27:01;;;;;;;0.22;0.22;;;;;;;3.78;100.00;100750.38;7391187;19;20010;-53
2022/03/05 05:29:27;;;;;;;7.97;0.95;;;;;;;3.77;100.00;100743.28;7391001;19;20074;-53
2022/03/05 05:31:55;;;;;;;0.32;0.17;;;;;;;3.78;100.00;100750.38;7392612;19;20019;-53
2022/03/05 05:34:21;;;;;;;0.40;0.40;;;;;;;3.74;100.00;100755.13;7391325;19;20018;-53
2022/03/05 05:36:47;;;;;;;0.30;0.30;;;;;;;3.64;100.00;100756.78;7392084;19;20011;-53
2022/03/05 05:39:13;;;;;;;0.75;0.50;;;;;;;3.52;100.00;100759.25;7392038;19;20451;-53
2022/03/05 05:41:40;;;;;;;0.57;0.57;;;;;;;3.61;100.00;100762.34;7392348;19;20034;-53
2022/03/05 05:44:10;;;;;;;0.65;0.65;;;;;;;3.65;100.00;100757.56;7391602;19;20344;-53
2022/03/05 05:46:36;;;;;;;0.43;0.43;;;;;;;3.68;100.00;100762.28;7391060;19;20032;-53
2022/03/05 05:49:02;;;;;;;0.65;0.65;;;;;;;3.71;100.00;100772.47;7391258;19;20039;-53
2022/03/05 05:51:28;;;;;;;0.20;0.20;;;;;;;3.75;100.00;100773.22;7392389;19;20487;-53
2022/03/05 05:53:55;;;;;;;0.45;0.45;;;;;;;3.78;100.00;100778.72;7391072;19;20010;-53
2022/03/05 05:56:22;;;;;;;0.30;0.30;;;;;;;3.79;100.00;100779.47;7391020;19;20014;-52
2022/03/05 05:58:49;;;;;;;0.47;0.47;;;;;;;3.82;100.00;100781.44;7391500;19;20022;-53
2022/03/05 06:01:17;;;;;;;0.85;0.85;;;;;;;3.80;100.00;100781.06;7392820;19;20079;-53
2022/03/05 06:03:44;;;;;;;1.08;0.52;;;;;;;3.80;100.00;100781.06;7391401;19;20014;-53
2022/03/05 06:06:11;;;;;;;0.47;0.47;;;;;;;3.78;100.00;100783.44;7391840;19;20003;-53
2022/03/05 06:08:36;;;;;;;0.32;0.32;;;;;;;3.74;100.00;100793.69;7388330;19;20014;-53
2022/03/05 06:11:02;;;;;;;0.30;0.30;;;;;;;3.71;100.00;100789.00;7392690;19;20451;-53
2022/03/05 06:13:28;;;;;;;0.47;0.47;;;;;;;3.71;100.00;100794.50;7390828;19;20453;-53
2022/03/05 06:15:54;;;;;;;0.40;0.40;;;;;;;3.67;100.00;100782.72;7397536;19;20026;-53
2022/03/05 06:18:19;;;;;;;0.75;0.75;;;;;;;3.68;100.00;100789.81;7397195;19;20015;-52
2022/03/05 06:20:45;;;;;;;0.40;0.40;;;;;;;3.69;100.00;100783.09;7397921;19;20020;-53
2022/03/05 06:23:10;;;;;;;0.28;0.28;;;;;;;3.65;100.00;100782.34;7398270;19;20010;-53
2022/03/05 06:25:36;;;;;;;0.22;0.22;;;;;;;3.65;100.00;100794.16;7395704;19;20038;-53
2022/03/05 06:28:02;;;;;;;1.10;1.10;;;;;;;3.61;100.00;100793.41;7397780;19;20013;-53
2022/03/05 06:30:28;;;;;;;0.43;0.43;;;;;;;3.63;100.00;100804.81;7398603;19;20018;-53
2022/03/05 06:32:54;;;;;;;0.30;0.30;;;;;;;3.64;100.00;100803.59;7397765;19;20007;-53
2022/03/05 06:35:19;;;;;;;0.28;0.28;;;;;;;3.64;100.00;100806.34;7396779;19;20062;-52
2022/03/05 06:37:45;;;;;;;0.60;0.50;;;;;;;3.62;100.00;100811.50;7397327;19;20031;-54
2022/03/05 06:40:11;;;;;;;0.30;0.30;;;;;;;3.60;100.00;100810.31;7398385;19;20011;-53
2022/03/05 06:42:41;;;;;;;0.50;0.50;;;;;;;3.57;100.00;100819.41;7396716;19;20381;-53
2022/03/05 06:45:08;;;;;;;0.35;0.35;;;;;;;3.52;100.00;100828.88;7397071;19;20416;-53
2022/03/05 06:47:39;;;;;;;1.20;1.20;;;;;;;3.48;100.00;100821.84;7396077;19;20463;-53
2022/03/05 06:50:07;;;;;;;0.20;0.20;;;;;;;3.50;100.00;100822.22;7397984;19;20018;-53
2022/03/05 06:52:33;;;;;;;0.35;0.35;;;;;;;3.59;100.00;100828.06;7395117;19;20066;-53
2022/03/05 06:54:59;;;;;;;0.20;0.20;;;;;;;3.65;100.00;100829.19;7397217;19;20777;-53
2022/03/05 06:57:25;;;;;;;0.30;0.30;;;;;;;3.70;100.00;100831.50;7395632;19;20062;-53
2022/03/05 06:59:50;;;;;;;1.25;0.57;;;;;;;3.74;100.00;100837.78;7397543;19;20021;-53
2022/03/05 07:02:16;;;;;;;0.70;0.45;;;;;;;3.59;100.00;100836.31;7397533;19;20007;-53
2022/03/05 07:04:42;;;;;;;4.43;1.30;;;;;;;3.56;100.00;100850.88;7396470;19;20066;-53
2022/03/05 07:07:07;;;;;;;0.10;0.10;;;;;;;3.64;100.00;100841.38;7395301;19;20016;-53
2022/03/05 07:09:33;;;;;;;0.38;0.38;;;;;;;3.71;100.00;100850.38;7395484;19;19999;-53
2022/03/05 07:11:59;;;;;;;0.30;0.30;;;;;;;3.70;100.00;100853.56;7395721;19;20019;-53
2022/03/05 07:14:25;;;;;;;0.35;0.35;;;;;;;3.76;100.00;100846.41;7395383;19;20018;-52
2022/03/05 07:16:51;;;;;;;0.28;0.28;;;;;;;3.73;100.00;100847.22;7396422;19;20007;-53
2022/03/05 07:19:16;;;;;;;0.30;0.30;;;;;;;3.71;100.00;100849.59;7396337;19;20090;-53
2022/03/05 07:21:42;;;;;;;2.40;0.68;;;;;;;3.72;100.00;100851.19;7394141;19;20027;-53
2022/03/05 07:24:10;;;;;;;0.22;0.22;;;;;;;3.71;100.00;100849.59;7395582;19;20002;-53
2022/03/05 07:26:36;;;;;;;2.30;0.85;;;;;;;3.69;100.00;100865.75;7393683;19;20510;-53
2022/03/05 07:29:02;;;;;;;0.30;0.30;;;;;;;3.69;100.00;100857.47;7396784;19;20007;-53
2022/03/05 07:31:28;;;;;;;0.50;0.50;;;;;;;3.70;100.00;100859.06;7394072;19;20438;-53
2022/03/05 07:33:53;;;;;;;0.52;0.52;;;;;;;3.80;100.00;100858.19;7396865;19;20011;-53
2022/03/05 07:36:22;;;;;;;0.30;0.30;;;;;;;3.78;100.00;100860.56;7396685;19;20031;-51
2022/03/05 07:38:47;;;;;;;10.52;1.17;;;;;;;3.86;100.00;100862.06;7394899;19;20030;-53
2022/03/05 07:41:13;;;;;;;0.85;0.85;;;;;;;3.88;100.00;100861.69;7396131;19;20074;-52
2022/03/05 07:43:40;;;;;;;1.85;0.85;;;;;;;3.87;100.00;100869.16;7394354;19;20003;-54
2022/03/05 07:46:06;;;;;;;0.40;0.40;;;;;;;3.92;100.00;100876.97;7395548;19;20006;-54
2022/03/05 07:48:31;;;;;;;5.70;0.68;;;;;;;3.96;100.00;100877.75;7394164;19;20015;-53
2022/03/05 07:50:59;;;;;;;1.48;0.63;;;;;;;4.02;100.00;100876.13;7396908;19;20018;-53
2022/03/05 07:53:31;;;;;;;0.15;0.15;;;;;;;4.10;100.00;100877.63;7394263;19;20007;-54
2022/03/05 07:55:57;;;;;;;0.73;0.60;;;;;;;4.14;100.00;100881.13;7395761;19;20010;-54
2022/03/05 07:58:23;;;;;;;0.90;0.52;;;;;;;4.29;100.00;100882.56;7395428;19;20433;-53
2022/03/05 08:00:49;;;;;;;0.85;0.70;;;;;;;4.36;100.00;100881.72;7397373;19;20013;-53
2022/03/05 08:03:15;;;;;;;0.73;0.43;;;;;;;4.39;100.00;100884.47;7396456;19;20019;-54
2022/03/05 08:05:41;;;;;;;1.70;0.70;;;;;;;4.46;100.00;100889.91;7395144;19;20021;-53
2022/03/05 08:08:07;;;;;;;2.53;0.98;;;;;;;4.61;100.00;100896.84;7394285;19;20006;-54
2022/03/05 08:10:32;;;;;;;8.20;1.13;;;;;;;4.74;100.00;100905.41;7394419;19;20494;-53
2022/03/05 08:12:58;;;;;;;4.18;1.10;;;;;;;4.84;100.00;100903.69;7396728;19;20014;-53
2022/03/05 08:15:24;;;;;;;2.50;1.17;;;;;;;4.96;100.00;100911.47;7393990;19;20044;-53
2022/03/05 08:17:49;;;;;;;0.35;0.35;;;;;;;5.10;100.00;100908.53;7394109;19;20350;-54
2022/03/05 08:20:15;;;;;;;0.47;0.47;;;;;;;5.21;100.00;100911.94;7395390;19;20074;-53
2022/03/05 08:22:41;;;;;;;3.42;0.77;;;;;;;5.30;100.00;100921.31;7392532;19;20018;-54
2022/03/05 08:25:06;;;;;;;9.65;2.05;;;;;;;5.41;100.00;100920.38;7394481;19;20372;-52
2022/03/05 08:27:32;;;;;;;0.20;0.20;;;;;;;5.58;100.00;100916.59;7392906;19;20006;-53
2022/03/05 08:29:58;;;;;;;0.20;0.15;;;;;;;5.71;100.00;100923.91;7394390;19;20017;-53
2022/03/05 08:32:23;;;;;;;0.43;0.20;;;;;;;5.81;100.00;100934.03;7392315;19;20583;-53
2022/03/05 08:34:49;;;;;;;0.75;0.50;;;;;;;5.76;100.00;100926.19;7394240;19;19998;-53
2022/03/05 08:37:14;;;;;;;1.08;0.45;;;;;;;5.94;100.00;100921.22;7392539;19;20074;-53
2022/03/05 08:39:40;;;;;;;0.30;0.30;;;;;;;5.97;100.00;100931.47;7392883;19;20024;-54
2022/03/05 08:42:07;;;;;;;0.10;0.10;;;;;;;6.17;100.00;100928.78;7393409;19;20010;-54
2022/03/05 08:44:33;;;;;;;0.20;0.20;;;;;;;6.30;100.00;100927.00;7393239;19;20492;-53
2022/03/05 08:46:58;;;;;;;0.65;0.65;;;;;;;6.36;100.00;100935.56;7393321;19;20014;-53
2022/03/05 08:49:24;;;;;;;0.40;0.40;;;;;;;6.42;100.00;100931.13;7393044;19;20002;-53
2022/03/05 08:51:50;;;;;;;2.20;0.55;;;;;;;6.51;100.00;100925.84;7392924;19;20015;-53
2022/03/05 08:54:17;;;;;;;6.18;1.80;;;;;;;6.59;100.00;100930.03;7393624;19;20010;-53
2022/03/05 08:56:43;;;;;;;7.97;1.25;;;;;;;6.67;100.00;100935.03;7393785;19;20066;-53
2022/03/05 08:59:09;;;;;;;2.15;1.02;;;;;;;6.72;100.00;100933.75;7392609;19;20024;-46
2022/03/05 09:01:34;;;;;;;3.60;0.65;;;;;;;6.83;100.00;100937.13;7393139;19;20070;-45
2022/03/05 09:04:00;;;;;;;11.35;0.90;;;;;;;6.89;100.00;100936.19;7389251;19;20011;-45
2022/03/05 09:06:26;;;;;;;1.52;0.60;;;;;;;6.97;100.00;100936.06;7390476;19;20488;-45
2022/03/05 09:08:52;;;;;;;0.30;0.30;;;;;;;7.01;100.00;100932.03;7393087;19;20034;-45
2022/03/05 09:11:18;;;;;;;1.23;0.38;;;;;;;6.94;100.00;100940.47;7393335;19;20015;-46
2022/03/05 09:13:43;;;;;;;0.10;0.10;;;;;;;6.94;100.00;100934.16;7393133;19;20011;-45
2022/03/05 09:16:09;;;;;;;0.17;0.17;;;;;;;7.01;100.00;100947.88;7390768;19;20027;-45
2022/03/05 09:18:35;;;;;;;0.40;0.40;;;;;;;7.08;100.00;100945.72;7389965;19;20018;-46
2022/03/05 09:21:00;;;;;;;0.43;0.43;;;;;;;7.20;100.00;100947.09;7391973;19;20011;-45
2022/03/05 09:23:26;;;;;;;7.22;0.28;;;;;;;7.26;100.00;100959.22;7389837;19;20011;-45
2022/03/05 09:25:51;;;;;;;0.20;0.20;;;;;;;7.26;100.00;100959.22;7392785;19;20467;-46
2022/03/05 09:28:17;;;;;;;6.28;0.88;;;;;;;7.28;100.00;100957.59;7390545;19;20082;-46
2022/03/05 09:30:43;;;;;;;7.50;0.52;;;;;;;7.31;100.00;100962.31;7393443;19;20119;-46
2022/03/05 09:33:09;;;;;;;0.22;0.22;;;;;;;7.34;100.00;100955.88;7390606;19;20034;-45
2022/03/05 09:35:34;;;;;;;0.82;0.73;;;;;;;7.35;100.00;100957.47;7391330;19;20066;-46
2022/03/05 09:38:00;;;;;;;0.40;0.40;;;;;;;7.46;100.00;100952.50;7391175;19;20011;-45
2022/03/05 09:40:25;;;;;;;0.10;0.10;;;;;;;7.53;100.00;100957.09;7392800;19;20014;-46
2022/03/05 09:42:51;;;;;;;0.20;0.20;;;;;;;7.57;100.00;100953.06;7394080;19;20074;-46
2022/03/05 09:45:18;;;;;;;0.20;0.20;;;;;;;7.59;100.00;100961.72;7390822;19;20003;-45
2022/03/05 09:47:44;;;;;;;0.98;0.50;;;;;;;7.69;100.00;100961.94;7390806;19;20028;-45
2022/03/05 09:50:11;;;;;;;0.10;0.10;;;;;;;7.79;100.00;100966.44;7399040;19;20015;-45
2022/03/05 09:52:37;;;;;;;0.90;0.30;;;;;;;7.91;100.00;100965.78;7400239;19;20490;-46
2022/03/05 09:55:03;;;;;;;0.20;0.20;;;;;;;7.98;100.00;100971.16;7398945;19;20078;-46
2022/03/05 09:57:29;;;;;;;2.20;1.02;;;;;;;8.10;100.00;100976.06;7397666;19;20006;-46
2022/03/05 09:59:55;;;;;;;5.05;1.00;;;;;;;8.27;100.00;100983.22;7399747;19;20369;-45
2022/03/05 10:02:21;;;;;;;0.20;0.20;;;;;;;8.33;100.00;100989.81;7397119;19;20013;-46
2022/03/05 10:04:46;;;;;;;0.30;0.30;;;;;;;8.40;100.00;100987.63;7395741;19;20014;-46
2022/03/05 10:07:15;;;;;;;0.80;0.80;;;;;;;8.51;100.00;100990.13;7397526;19;20017;-46
2022/03/05 10:09:44;;;;;;;0.10;0.10;;;;;;;8.58;100.00;100987.19;7398307;19;20014;-46
2022/03/05 10:12:33;;;;;;;0.10;0.10;;;;;;;8.63;100.00;100989.47;7398218;19;20010;-46
2022/03/05 10:15:13;;;;;;;4.57;0.30;;;;;;;8.73;100.00;100999.50;7397920;19;20003;-46
2022/03/05 10:17:48;;;;;;;2.55;0.70;;;;;;;8.88;100.00;100995.16;7396820;19;20066;-46
2022/03/05 10:20:14;;;;;;;3.22;1.02;;;;;;;9.03;100.00;100990.78;7399143;19;20470;-46
2022/03/05 10:22:55;;;;;;;0.63;0.35;;;;;;;9.11;100.00;100994.97;7396629;19;20019;-46
2022/03/05 10:25:32;;;;;;;0.28;0.15;;;;;;;9.27;100.00;100996.13;7395194;19;20007;-46
2022/03/05 10:28:11;;;;;;;0.20;0.20;;;;;;;9.44;100.00;100994.84;7397022;19;20460;-46
2022/03/05 10:30:39;;;;;;;1.20;0.75;;;;;;;9.51;100.00;100998.19;7397755;19;20376;-46
2022/03/05 10:33:06;;;;;;;0.30;0.30;;;;;;;9.53;100.00;100995.75;7397729;19;20082;-46
2022/03/05 10:35:32;;;;;;;0.40;0.25;;;;;;;9.66;100.00;101007.69;7396414;19;20014;-46
2022/03/05 10:37:57;;;;;;;2.03;0.50;;;;;;;9.71;100.00;100989.69;7396415;19;20322;-46
2022/03/05 10:40:32;;;;;;;0.10;0.10;;;;;;;9.87;100.00;100990.38;7397753;19;20015;-46
2022/03/05 10:43:00;;;;;;;0.25;0.25;;;;;;;9.98;100.00;101003.22;7397885;19;20015;-46
2022/03/05 10:45:29;;;;;;;0.20;0.10;;;;;;;10.14;100.00;101000.34;7396270;19;20111;-46
2022/03/05 10:47:56;;;;;;;2.05;0.80;;;;;;;10.25;100.00;100996.00;7393298;19;20026;-46
2022/03/05 10:50:25;;;;;;;0.20;0.20;;;;;;;10.33;100.00;100997.34;7397908;19;20014;-53
2022/03/05 10:52:53;;;;;;;0.55;0.55;;;;;;;10.31;100.00;100999.03;7396835;19;20112;-53
2022/03/05 10:55:21;;;;;;;0.20;0.20;;;;;;;10.57;100.00;100995.75;7396308;19;20014;-52
2022/03/05 10:58:13;;;;;;;2.75;0.30;;;;;;;10.80;100.00;101002.19;7394618;19;20019;-53
2022/03/05 11:00:42;;;;;;;0.30;0.25;;;;;;;10.91;100.00;101003.41;7393552;19;20014;-53
2022/03/05 11:03:09;;;;;;;20.67;0.85;;;;;;;10.88;100.00;101014.66;7397409;19;20013;-53
2022/03/05 11:05:36;;;;;;;0.47;0.25;;;;;;;10.90;100.00;101018.56;7396538;19;20022;-53
2022/03/05 11:08:03;;;;;;;0.85;0.65;;;;;;;10.87;100.00;101027.03;7396355;19;20022;-53
2022/03/05 11:10:29;;;;;;;0.25;0.20;;;;;;;10.77;100.00;101019.78;7398421;19;20015;-53
2022/03/05 11:12:59;;;;;;;8.52;1.20;;;;;;;10.74;100.00;101029.06;7397201;19;20010;-53
2022/03/05 11:15:29;;;;;;;0.43;0.43;;;;;;;10.70;100.00;101020.06;7396627;19;20025;-53
2022/03/05 11:17:55;;;;;;;0.80;0.60;;;;;;;10.83;100.00;101024.34;7396764;19;20030;-53
2022/03/05 11:20:21;;;;;;;0.68;0.20;;;;;;;10.91;100.00;101031.28;7397558;19;20017;-51